createdAt,value
2022-07-29T00:03:22.587Z,4136
2022-07-29T00:08:34.957Z,4179
2022-07-29T00:13:50.821Z,4205
2022-07-29T00:19:02.203Z,4164
2022-07-29T00:24:12.881Z,4162
2022-07-29T00:29:33.868Z,4112
2022-07-29T00:34:37.077Z,4192
2022-07-29T00:39:49.425Z,4192
2022-07-29T00:45:01.906Z,4158
2022-07-29T00:50:14.516Z,4188
2022-07-29T00:55:26.859Z,4192
2022-07-29T01:00:39.290Z,4021
2022-07-29T01:05:52.026Z,4175
2022-07-29T01:11:03.783Z,3999
2022-07-29T01:16:16.291Z,4142
2022-07-29T01:21:28.451Z,4140
2022-07-29T01:26:40.643Z,4097
2022-07-29T01:31:59.673Z,4162
2022-07-29T01:37:05.225Z,4116
2022-07-29T01:42:17.526Z,4132
2022-07-29T01:47:30.233Z,4157
2022-07-29T01:52:42.587Z,4168
2022-07-29T01:57:54.794Z,4188
2022-07-29T02:03:07.038Z,4164
2022-07-29T02:08:19.452Z,4127
2022-07-29T02:13:31.824Z,4170
2022-07-29T02:18:44.289Z,4166
2022-07-29T02:23:56.600Z,4157
2022-07-29T02:29:09.123Z,4145
2022-07-29T02:34:21.454Z,4149
2022-07-29T02:39:33.907Z,4134
2022-07-29T02:44:46.000Z,4136
2022-07-29T02:49:58.433Z,4162
2022-07-29T02:55:10.601Z,4175
2022-07-29T03:00:22.974Z,4127
2022-07-29T03:05:35.513Z,4158
2022-07-29T03:10:47.710Z,4039
2022-07-29T03:16:00.276Z,4118
2022-07-29T03:21:12.591Z,4088
2022-07-29T03:26:24.916Z,4106
2022-07-29T03:31:37.135Z,4140
2022-07-29T03:36:49.437Z,4151
2022-07-29T03:42:01.672Z,4105
2022-07-29T03:47:13.967Z,4086
2022-07-29T03:52:26.793Z,4095
2022-07-29T03:57:39.292Z,4142
2022-07-29T04:02:51.666Z,4119
2022-07-29T04:08:04.186Z,4132
2022-07-29T04:13:16.737Z,4145
2022-07-29T04:18:28.842Z,4192
2022-07-29T04:23:45.927Z,4136
2022-07-29T04:28:53.617Z,4185
2022-07-29T04:34:06.209Z,4151
2022-07-29T04:39:22.607Z,4170
2022-07-29T04:44:30.649Z,4186
2022-07-29T04:49:42.893Z,4157
2022-07-29T04:54:55.221Z,4140
2022-07-29T05:00:07.564Z,4171
2022-07-29T05:05:19.764Z,4155
2022-07-29T05:10:32.183Z,4145
2022-07-29T05:15:44.762Z,4142
2022-07-29T05:20:57.241Z,4134
2022-07-29T05:26:09.641Z,4149
2022-07-29T05:31:21.899Z,4157
2022-07-29T05:36:34.306Z,4142
2022-07-29T05:41:50.084Z,4140
2022-07-29T05:46:58.733Z,4186
2022-07-29T05:52:10.873Z,4168
2022-07-29T05:57:23.425Z,4166
2022-07-29T06:02:35.860Z,4188
2022-07-29T06:07:49.538Z,4170
2022-07-29T06:13:01.264Z,4177
2022-07-29T06:18:13.506Z,4136
2022-07-29T06:23:26.119Z,4190
2022-07-29T06:28:38.569Z,4190
2022-07-29T06:33:50.887Z,4192
2022-07-29T06:39:03.059Z,4171
2022-07-29T06:44:15.664Z,4173
2022-07-29T06:49:27.862Z,4134
2022-07-29T06:54:40.370Z,4138
2022-07-29T06:59:52.701Z,4151
2022-07-29T07:05:05.350Z,4149
2022-07-29T07:10:17.978Z,4175
2022-07-29T07:15:38.909Z,4175
2022-07-29T07:20:42.693Z,4185
2022-07-29T07:25:54.932Z,4196
2022-07-29T07:31:07.131Z,4196
2022-07-29T07:36:19.506Z,4196
2022-07-29T07:41:32.370Z,4196
2022-07-29T07:46:44.028Z,4136
2022-07-29T07:51:56.377Z,4196
2022-07-29T07:57:08.777Z,4153
2022-07-29T08:02:21.351Z,4177
2022-07-29T08:07:33.589Z,4134
2022-07-29T08:12:46.055Z,4181
2022-07-29T08:17:58.671Z,4166
2022-07-29T08:23:10.968Z,4192
2022-07-29T08:28:25.910Z,4179
2022-07-29T08:33:35.634Z,4201
2022-07-29T08:38:47.931Z,4181
2022-07-29T08:44:00.384Z,4138
2022-07-29T08:49:12.568Z,4166
2022-07-29T08:54:24.941Z,4170
2022-07-29T08:59:37.268Z,4168
2022-07-29T09:04:49.999Z,4183
2022-07-29T09:10:02.308Z,4188
2022-07-29T09:15:14.653Z,4196
2022-07-29T09:20:26.963Z,4212
2022-07-29T09:25:39.804Z,4190
2022-07-29T09:30:52.194Z,4199
2022-07-29T09:36:06.007Z,4149
2022-07-29T09:41:18.412Z,4142
2022-07-29T09:46:31.388Z,4207
2022-07-29T09:51:43.698Z,4211
2022-07-29T09:56:56.308Z,4231
2022-07-29T10:02:08.517Z,4233
2022-07-29T10:07:20.952Z,4209
2022-07-29T10:12:33.289Z,4238
2022-07-29T10:17:45.191Z,4214
2022-07-29T10:22:57.495Z,4166
2022-07-29T10:28:13.237Z,4207
2022-07-29T10:33:22.477Z,4192
2022-07-29T10:38:34.681Z,4220
2022-07-29T10:43:47.187Z,4237
2022-07-29T10:48:59.605Z,4181
2022-07-29T10:54:11.802Z,4211
2022-07-29T10:59:24.170Z,4216
2022-07-29T11:04:36.797Z,4240
2022-07-29T11:09:49.190Z,4237
2022-07-29T11:15:01.646Z,4240
2022-07-29T11:20:14.376Z,4261
2022-07-29T11:25:42.635Z,4242
2022-07-29T11:30:39.221Z,4250
2022-07-29T11:36:00.722Z,4272
2022-07-29T11:41:04.070Z,4216
2022-07-29T11:46:16.615Z,4266
2022-07-29T11:51:33.039Z,4268
2022-07-29T11:56:41.475Z,4224
2022-07-29T12:02:02.374Z,4264
2022-07-29T12:12:19.076Z,4246
2022-07-29T12:17:31.591Z,4240
2022-07-29T12:22:44.027Z,4244
2022-07-29T12:27:57.172Z,4272
2022-07-29T12:33:09.600Z,4270
2022-07-29T12:38:22.111Z,4266
2022-07-29T12:43:34.335Z,3989
2022-07-29T12:48:46.843Z,4238
2022-07-29T12:53:59.274Z,4220
2022-07-29T12:59:11.636Z,4246
2022-07-29T13:04:24.036Z,4250
2022-07-29T13:09:36.274Z,4229
2022-07-29T13:14:48.697Z,4218
2022-07-29T13:20:01.105Z,4268
2022-07-29T13:25:13.651Z,4272
2022-07-29T13:30:25.979Z,4251
2022-07-29T13:35:39.866Z,4225
2022-07-29T13:46:02.858Z,4259
2022-07-29T13:51:15.352Z,4242
2022-07-29T13:56:28.515Z,4203
2022-07-29T14:01:40.876Z,4240
2022-07-29T14:06:53.060Z,4244
2022-07-29T14:12:05.453Z,4250
2022-07-29T14:17:18.158Z,4242
2022-07-29T14:22:30.419Z,4238
2022-07-29T14:27:43.232Z,4244
2022-07-29T14:32:55.571Z,4250
2022-07-29T14:38:07.791Z,4268
2022-07-29T14:43:20.222Z,4237
2022-07-29T14:48:32.552Z,4242
2022-07-29T14:53:44.988Z,4229
2022-07-29T14:58:57.690Z,4233
2022-07-29T15:04:10.134Z,4237
2022-07-29T15:09:22.473Z,4263
2022-07-29T15:14:34.879Z,4261
2022-07-29T15:19:47.103Z,4237
2022-07-29T15:24:59.313Z,4270
2022-07-29T15:30:11.432Z,4209
2022-07-29T15:35:23.865Z,4240
2022-07-29T15:40:36.244Z,4251
2022-07-29T15:45:48.508Z,4272
2022-07-29T15:51:00.687Z,4279
2022-07-29T15:56:13.174Z,4257
2022-07-29T16:06:37.608Z,4270
2022-07-29T16:17:03.078Z,4302
2022-07-29T16:22:15.011Z,4272
2022-07-29T16:27:27.097Z,4304
2022-07-29T16:37:51.426Z,4278
2022-07-29T16:43:03.643Z,4272
2022-07-29T16:48:17.369Z,4276
2022-07-29T16:53:30.045Z,4302
2022-07-29T16:58:43.704Z,4291
2022-07-29T17:03:54.997Z,4292
2022-07-29T17:09:05.564Z,4300
2022-07-29T17:14:17.720Z,4291
2022-07-29T17:19:30.050Z,4274
2022-07-29T17:24:42.254Z,4264
2022-07-29T17:29:55.604Z,4065
2022-07-29T17:35:08.004Z,4276
2022-07-29T17:40:20.132Z,4261
2022-07-29T17:45:49.273Z,4274
2022-07-29T17:50:44.689Z,4287
2022-07-29T17:55:56.893Z,4278
2022-07-29T18:01:09.282Z,4261
2022-07-29T18:06:21.446Z,4276
2022-07-29T18:11:32.824Z,4285
2022-07-29T18:16:45.924Z,4255
2022-07-29T18:27:10.224Z,4261
2022-07-29T18:32:29.011Z,4266
2022-07-29T18:38:00.364Z,4257
2022-07-29T18:42:47.260Z,4255
2022-07-29T18:47:59.642Z,4253
2022-07-29T18:53:11.687Z,4233
2022-07-29T18:58:23.966Z,4250
2022-07-29T19:03:36.215Z,4264
2022-07-29T19:08:48.506Z,4244
2022-07-29T19:14:00.830Z,4259
2022-07-29T19:19:13.044Z,4251
2022-07-29T19:24:25.578Z,4248
2022-07-29T19:29:37.645Z,4212
2022-07-29T19:34:49.912Z,4248
2022-07-29T19:40:02.050Z,4238
2022-07-29T19:45:14.379Z,4246
2022-07-29T19:50:26.812Z,4251
2022-07-29T19:55:38.892Z,4237
2022-07-29T20:00:57.415Z,4246
2022-07-29T20:06:03.806Z,4237
2022-07-29T20:11:16.090Z,4246
2022-07-29T20:16:28.337Z,4244
2022-07-29T20:21:41.224Z,4246
2022-07-29T20:26:53.442Z,4246
2022-07-29T20:32:05.735Z,4229
2022-07-29T20:37:17.996Z,4255
2022-07-29T20:42:30.312Z,4244
2022-07-29T20:47:42.751Z,4238
2022-07-29T20:52:58.160Z,4251
2022-07-29T20:58:10.332Z,4218
2022-07-29T21:03:22.595Z,4246
2022-07-29T21:08:35.129Z,4240
2022-07-29T21:13:47.207Z,4240
2022-07-29T21:18:59.460Z,4244
2022-07-29T21:24:12.156Z,4220
2022-07-29T21:29:24.093Z,4235
2022-07-29T21:34:39.700Z,4201
2022-07-29T21:39:52.162Z,4237
2022-07-29T21:45:04.324Z,4214
2022-07-29T21:50:16.766Z,4237
2022-07-29T21:55:28.989Z,4240
2022-07-29T22:00:41.213Z,4237
2022-07-29T22:05:53.624Z,4246
2022-07-29T22:11:06.044Z,4225
2022-07-29T22:16:18.422Z,4231
2022-07-29T22:21:30.711Z,4209
2022-07-29T22:26:43.102Z,4194
2022-07-29T22:31:55.412Z,4205
2022-07-29T22:37:07.771Z,4207
2022-07-29T22:42:19.991Z,4218
2022-07-29T22:47:39.093Z,4220
2022-07-29T22:52:44.475Z,4231
2022-07-29T22:57:56.667Z,4192
2022-07-29T23:03:08.995Z,4218
2022-07-29T23:08:21.440Z,4211
2022-07-29T23:13:33.727Z,4185
2022-07-29T23:18:46.009Z,4229
2022-07-29T23:23:58.407Z,4185
2022-07-29T23:29:10.727Z,4185
2022-07-29T23:34:23.019Z,4179
2022-07-29T23:39:35.368Z,4190
2022-07-29T23:49:59.923Z,4220
2022-07-29T23:55:35.944Z,4170
